Time;durP1;ratioP1;P1;durP2;ratioP2;P2;SDS_P1;SDS_P2;PMS_P1;PMS_P2;Temp;Humidity;BMP_temperature;BMP_pressure;BME280_temperature;BME280_humidity;BME280_pressure;Samples;Min_cycle;Max_cycle;Signal;HPM_P1;HPM_P2
2022/07/03 00:01:39;;;;;;;18.48;17.40;;;14.40;99.90;;;;;;5070100;28;20174;-75
2022/07/03 00:04:05;;;;;;;18.30;17.30;;;14.40;99.90;;;;;;5065808;28;20098;-76
2022/07/03 00:06:33;;;;;;;17.77;16.85;;;14.20;99.90;;;;;;5070855;28;20056;-75
2022/07/03 00:09:03;;;;;;;17.88;16.98;;;14.30;99.90;;;;;;5051187;28;20185;-79
2022/07/03 00:11:33;;;;;;;17.90;16.80;;;14.20;99.90;;;;;;5057119;28;20499;-74
2022/07/03 00:14:00;;;;;;;17.92;17.00;;;14.20;99.90;;;;;;5069606;28;20072;-76
2022/07/03 00:16:27;;;;;;;18.67;17.45;;;14.20;99.90;;;;;;5069543;28;20047;-75
2022/07/03 00:18:54;;;;;;;17.95;16.95;;;14.00;99.90;;;;;;5051731;28;20036;-76
2022/07/03 00:21:44;;;;;;;18.55;17.13;;;14.00;99.90;;;;;;5061351;28;20891;-75
2022/07/03 00:24:40;;;;;;;18.02;17.13;;;13.80;99.90;;;;;;5064040;28;20106;-75
2022/07/03 00:27:08;;;;;;;;;;;13.70;99.90;;;;;;5066339;28;20090;-75
2022/07/03 00:29:43;;;;;;;18.15;17.10;;;13.80;99.90;;;;;;5065870;28;19920;-75
2022/07/03 00:32:20;;;;;;;18.33;17.35;;;13.70;99.90;;;;;;5057606;28;20432;-76
2022/07/03 00:34:50;;;;;;;18.48;17.52;;;13.70;99.90;;;;;;5066032;28;20071;-75
2022/07/03 00:37:17;;;;;;;18.27;17.25;;;13.70;99.90;;;;;;5070435;28;21207;-74
2022/07/03 00:39:45;;;;;;;18.55;17.48;;;13.60;99.90;;;;;;5069192;28;20527;-76
2022/07/03 00:42:12;;;;;;;18.40;17.30;;;13.50;99.90;;;;;;5047412;28;20805;-75
2022/07/03 00:44:46;;;;;;;18.48;17.40;;;13.50;99.90;;;;;;5055792;28;20063;-76
2022/07/03 00:47:14;;;;;;;18.42;17.45;;;13.60;99.90;;;;;;5065918;28;20056;-75
2022/07/03 00:49:45;;;;;;;18.25;17.20;;;13.50;99.90;;;;;;5065927;28;20047;-74
2022/07/03 00:52:13;;;;;;;18.25;17.25;;;13.60;99.90;;;;;;5052272;28;20048;-76
2022/07/03 00:54:54;;;;;;;17.55;16.63;;;13.60;99.90;;;;;;5070005;28;20076;-76
2022/07/03 00:57:23;;;;;;;17.92;16.98;;;13.60;99.90;;;;;;5070332;28;20048;-76
2022/07/03 00:59:51;;;;;;;18.52;17.23;;;13.50;99.90;;;;;;5071304;28;20047;-75
2022/07/03 01:02:23;;;;;;;17.20;16.40;;;13.50;99.90;;;;;;5057935;28;20169;-76
2022/07/03 01:05:12;;;;;;;18.25;17.25;;;13.40;99.90;;;;;;5048334;28;20047;-75
2022/07/03 01:07:51;;;;;;;17.73;16.80;;;13.30;99.90;;;;;;5063578;28;20048;-76
2022/07/03 01:10:31;;;;;;;17.13;16.23;;;13.20;99.90;;;;;;5069029;28;20412;-76
2022/07/03 01:13:06;;;;;;;17.40;16.50;;;13.20;99.90;;;;;;5070975;28;20148;-76
2022/07/03 01:15:50;;;;;;;17.92;17.00;;;13.30;99.90;;;;;;5061549;28;20668;-75
2022/07/03 01:18:48;;;;;;;17.98;16.98;;;13.30;99.90;;;;;;5068620;28;20168;-77
2022/07/03 01:22:13;;;;;;;17.80;16.73;;;13.20;99.90;;;;;;5063370;28;20048;-75
2022/07/03 01:25:14;;;;;;;17.20;16.40;;;13.20;99.90;;;;;;5031739;28;20534;-76
2022/07/03 01:28:09;;;;;;;18.33;17.17;;;13.20;99.90;;;;;;5062151;28;20505;-75
2022/07/03 01:30:42;;;;;;;19.27;18.08;;;13.20;99.90;;;;;;5066341;28;20045;-74
2022/07/03 01:33:17;;;;;;;17.30;16.27;;;13.00;99.90;;;;;;5054296;28;20053;-75
2022/07/03 01:36:06;;;;;;;;;;;13.10;99.90;;;;;;5050838;28;20048;-74
2022/07/03 01:38:36;;;;;;;17.33;16.40;;;13.20;99.90;;;;;;5068640;28;19978;-75
2022/07/03 01:41:05;;;;;;;17.70;16.63;;;13.10;99.90;;;;;;5068231;28;20507;-76
2022/07/03 01:43:41;;;;;;;17.92;16.67;;;13.20;99.90;;;;;;5065671;28;20052;-74
2022/07/03 01:46:11;;;;;;;17.75;16.67;;;13.00;99.90;;;;;;5054908;28;20278;-76
2022/07/03 01:48:42;;;;;;;17.67;16.67;;;13.00;99.90;;;;;;5051457;28;20048;-75
2022/07/03 01:51:13;;;;;;;17.90;16.85;;;12.90;99.90;;;;;;5071866;28;20040;-76
2022/07/03 01:53:44;;;;;;;17.38;16.38;;;13.00;99.90;;;;;;5061462;28;20052;-74
2022/07/03 01:56:11;;;;;;;16.77;15.95;;;12.90;99.90;;;;;;5064728;28;20585;-74
2022/07/03 01:58:38;;;;;;;16.77;15.82;;;12.90;99.90;;;;;;5065597;28;20112;-74
2022/07/03 02:01:08;;;;;;;16.92;16.13;;;12.80;99.90;;;;;;5050608;28;20075;-74
2022/07/03 02:03:40;;;;;;;17.70;16.80;;;12.80;99.90;;;;;;5053835;28;20040;-75
2022/07/03 02:06:28;;;;;;;17.10;16.20;;;12.70;99.90;;;;;;5055766;28;20036;-75
2022/07/03 02:09:02;;;;;;;17.30;16.30;;;12.80;99.90;;;;;;5069693;28;20095;-75
2022/07/03 02:11:50;;;;;;;16.67;15.85;;;12.80;99.90;;;;;;5070216;28;20090;-75
2022/07/03 02:14:24;;;;;;;15.93;15.13;;;12.70;99.90;;;;;;5067507;28;20532;-73
2022/07/03 02:16:54;;;;;;;16.08;15.27;;;12.60;99.90;;;;;;5069502;28;20048;-76
2022/07/03 02:19:33;;;;;;;16.98;15.98;;;12.60;99.90;;;;;;5054968;28;20101;-75
2022/07/03 02:22:02;;;;;;;17.73;16.75;;;12.60;99.90;;;;;;5065035;28;20098;-76
2022/07/03 02:24:45;;;;;;;16.90;16.10;;;12.70;99.90;;;;;;5061433;28;20039;-75
2022/07/03 02:27:19;;;;;;;17.05;16.15;;;12.60;99.90;;;;;;5068811;28;20040;-75
2022/07/03 02:29:55;;;;;;;16.33;15.52;;;12.70;99.90;;;;;;5047680;28;20048;-74
2022/07/03 02:32:22;;;;;;;16.10;15.10;;;12.70;99.90;;;;;;5070026;28;20048;-75
2022/07/03 02:35:02;;;;;;;16.98;15.98;;;12.80;99.90;;;;;;5061106;28;20493;-74
2022/07/03 02:37:34;;;;;;;16.65;15.75;;;12.70;99.90;;;;;;5054822;28;20048;-78
2022/07/03 02:40:08;;;;;;;17.25;16.25;;;12.60;99.90;;;;;;5069247;28;20101;-74
2022/07/03 02:42:39;;;;;;;17.33;16.23;;;12.50;99.90;;;;;;5057320;28;20043;-76
2022/07/03 02:45:08;;;;;;;17.90;16.70;;;12.50;99.90;;;;;;5069586;28;20134;-75
2022/07/03 02:48:00;;;;;;;17.35;16.45;;;12.60;99.90;;;;;;5069048;28;20090;-77
2022/07/03 02:50:28;;;;;;;17.58;16.55;;;12.50;99.90;;;;;;5073525;28;20040;-75
2022/07/03 02:53:06;;;;;;;17.80;16.70;;;12.40;99.90;;;;;;5071168;28;20044;-76
2022/07/03 02:55:42;;;;;;;17.30;16.30;;;12.40;99.90;;;;;;5068176;28;20044;-76
2022/07/03 02:58:12;;;;;;;17.33;16.23;;;12.40;99.90;;;;;;5068464;28;20105;-77
2022/07/03 03:00:42;;;;;;;18.02;17.02;;;12.40;99.90;;;;;;5062007;28;20102;-75
2022/07/03 03:03:09;;;;;;;17.85;16.63;;;12.30;99.90;;;;;;5073459;28;20056;-75
2022/07/03 03:05:53;;;;;;;17.70;16.80;;;12.30;99.90;;;;;;5066753;28;20541;-74
2022/07/03 03:08:40;;;;;;;17.97;16.90;;;12.40;99.90;;;;;;5063074;28;20051;-76
2022/07/03 03:11:13;;;;;;;17.60;16.27;;;12.30;99.90;;;;;;5067148;28;20807;-75
2022/07/03 03:13:45;;;;;;;18.00;16.80;;;12.30;99.90;;;;;;5072044;28;20094;-74
2022/07/03 03:16:14;;;;;;;16.92;15.93;;;12.20;99.90;;;;;;5068155;28;20041;-76
2022/07/03 03:18:41;;;;;;;16.83;16.02;;;12.20;99.90;;;;;;5054518;28;20060;-75
2022/07/03 03:21:11;;;;;;;17.50;16.50;;;12.20;99.90;;;;;;5065811;28;20064;-75
2022/07/03 03:23:49;;;;;;;17.02;16.13;;;12.30;99.90;;;;;;5057310;28;20044;-75
2022/07/03 03:26:24;;;;;;;16.75;15.77;;;12.20;99.90;;;;;;5075490;28;20071;-76
2022/07/03 03:28:51;;;;;;;17.38;16.38;;;12.20;99.90;;;;;;5062158;28;20131;-76
2022/07/03 03:31:19;;;;;;;17.08;16.08;;;12.20;99.90;;;;;;5069434;28;20048;-75
2022/07/03 03:33:49;;;;;;;17.70;16.60;;;12.20;99.90;;;;;;5064936;28;20044;-74
2022/07/03 03:36:18;;;;;;;18.05;16.85;;;12.30;99.90;;;;;;5065391;28;20536;-75
2022/07/03 03:38:46;;;;;;;17.02;16.13;;;12.20;99.90;;;;;;5070040;28;20059;-73
2022/07/03 03:41:13;;;;;;;17.05;16.15;;;12.40;99.90;;;;;;5054868;28;20048;-73
2022/07/03 03:43:44;;;;;;;17.50;16.50;;;12.40;99.90;;;;;;5065524;28;20040;-74
2022/07/03 03:46:11;;;;;;;16.50;15.60;;;12.30;99.90;;;;;;5048872;28;20042;-74
2022/07/03 03:48:38;;;;;;;16.52;15.63;;;12.50;99.90;;;;;;5048577;28;20505;-76
2022/07/03 03:51:07;;;;;;;17.20;16.20;;;12.40;99.90;;;;;;5067244;28;20093;-73
2022/07/03 03:53:34;;;;;;;16.70;15.75;;;12.40;99.90;;;;;;5068136;28;20056;-75
2022/07/03 03:56:03;;;;;;;17.20;16.23;;;12.30;99.90;;;;;;5068091;28;20041;-76
2022/07/03 03:58:32;;;;;;;16.77;15.77;;;12.30;99.90;;;;;;5054692;28;20427;-75
2022/07/03 04:01:01;;;;;;;16.88;15.88;;;12.30;99.90;;;;;;5050423;28;20205;-75
2022/07/03 04:03:29;;;;;;;17.75;16.65;;;12.40;99.90;;;;;;5064930;28;20037;-76
2022/07/03 04:05:56;;;;;;;16.15;15.25;;;12.50;99.90;;;;;;5065454;28;20722;-75
2022/07/03 04:08:24;;;;;;;15.60;14.70;;;12.50;99.90;;;;;;5065858;28;20205;-75
2022/07/03 04:10:51;;;;;;;15.75;14.95;;;12.50;99.90;;;;;;5069445;28;20385;-76
2022/07/03 04:13:21;;;;;;;15.98;15.18;;;12.50;99.90;;;;;;5070652;28;20055;-75
2022/07/03 04:15:49;;;;;;;17.02;15.73;;;12.60;99.90;;;;;;5074184;28;21194;-74
2022/07/03 04:18:17;;;;;;;16.25;15.23;;;12.70;99.90;;;;;;5060962;28;20079;-75
2022/07/03 04:20:44;;;;;;;16.70;15.32;;;12.80;99.90;;;;;;5063145;28;20044;-74
2022/07/03 04:23:11;;;;;;;16.33;15.52;;;13.00;99.90;;;;;;5067405;28;20048;-75
2022/07/03 04:25:38;;;;;;;15.70;14.90;;;13.00;99.90;;;;;;5066708;28;20040;-76
2022/07/03 04:28:05;;;;;;;15.80;14.80;;;13.10;99.90;;;;;;5066031;28;20037;-75
2022/07/03 04:30:45;;;;;;;16.00;14.90;;;13.10;99.90;;;;;;5055345;28;20571;-76
2022/07/03 04:33:12;;;;;;;15.57;14.52;;;13.10;99.90;;;;;;5050742;28;20048;-75
2022/07/03 04:35:39;;;;;;;16.83;15.57;;;13.30;99.90;;;;;;5064021;28;20102;-75
2022/07/03 04:38:06;;;;;;;17.38;16.38;;;13.70;99.90;;;;;;5063986;28;20123;-76
2022/07/03 04:40:33;;;;;;;19.38;18.30;;;14.20;99.90;;;;;;5062719;28;20064;-75
2022/07/03 04:42:59;;;;;;;20.65;19.35;;;14.60;99.90;;;;;;5065224;28;20053;-75
2022/07/03 04:45:26;;;;;;;19.55;18.50;;;15.10;99.90;;;;;;5053825;28;20131;-74
2022/07/03 04:47:53;;;;;;;18.85;17.85;;;15.60;99.90;;;;;;5072411;28;20093;-76
2022/07/03 04:50:20;;;;;;;19.05;17.95;;;15.90;99.90;;;;;;5059624;28;20117;-74
2022/07/03 04:52:46;;;;;;;19.35;18.00;;;16.30;99.90;;;;;;5062914;28;20040;-76
2022/07/03 04:55:13;;;;;;;20.48;19.15;;;17.00;99.90;;;;;;5057559;28;20693;-74
2022/07/03 04:57:40;;;;;;;21.52;20.33;;;17.40;99.90;;;;;;5057671;28;20040;-76
2022/07/03 05:00:08;;;;;;;19.83;18.92;;;17.70;99.90;;;;;;5044214;28;20109;-75
2022/07/03 05:02:36;;;;;;;20.05;19.05;;;17.90;99.90;;;;;;5063512;28;20044;-75
2022/07/03 05:05:04;;;;;;;19.63;18.73;;;17.90;99.90;;;;;;5063062;28;20032;-75
2022/07/03 05:07:31;;;;;;;20.35;19.35;;;18.10;99.90;;;;;;5054519;28;20537;-76
2022/07/03 05:09:58;;;;;;;19.65;18.65;;;18.40;99.90;;;;;;5053170;28;20066;-75
2022/07/03 05:12:25;;;;;;;19.77;18.58;;;18.50;99.90;;;;;;5064187;28;20040;-74
2022/07/03 05:14:52;;;;;;;20.05;19.05;;;18.30;99.90;;;;;;5052046;28;20056;-75
2022/07/03 05:17:19;;;;;;;19.90;18.80;;;18.40;99.90;;;;;;5067135;28;20454;-75
2022/07/03 05:19:46;;;;;;;19.52;18.63;;;18.50;99.90;;;;;;5075503;28;20532;-73
2022/07/03 05:22:13;;;;;;;19.92;18.67;;;18.90;99.90;;;;;;5056146;28;20390;-75
2022/07/03 05:24:40;;;;;;;19.75;18.75;;;19.20;99.90;;;;;;5066908;28;20044;-75
2022/07/03 05:27:07;;;;;;;18.95;18.15;;;19.70;99.90;;;;;;5047404;28;20036;-73
2022/07/03 05:29:34;;;;;;;19.52;18.52;;;20.10;99.90;;;;;;5064124;28;20040;-73
2022/07/03 05:32:05;;;;;;;19.98;18.92;;;20.80;99.90;;;;;;5064814;28;20055;-75
2022/07/03 05:34:32;;;;;;;20.38;19.13;;;21.40;99.90;;;;;;5070218;28;20103;-75
2022/07/03 05:36:59;;;;;;;19.90;18.90;;;21.70;99.90;;;;;;5071716;28;20051;-72
2022/07/03 05:39:31;;;;;;;20.48;19.40;;;21.90;99.90;;;;;;5067415;28;20433;-74
2022/07/03 05:41:58;;;;;;;20.40;19.40;;;22.10;99.90;;;;;;5069292;28;20625;-76
2022/07/03 05:44:25;;;;;;;20.73;19.73;;;22.10;99.90;;;;;;5063494;28;20055;-74
2022/07/03 05:46:51;;;;;;;20.42;19.52;;;22.20;99.90;;;;;;5067312;28;20074;-73
2022/07/03 05:49:18;;;;;;;20.85;19.75;;;22.40;99.90;;;;;;5055737;28;20490;-75
2022/07/03 05:51:45;;;;;;;20.70;19.63;;;22.60;99.90;;;;;;5069006;28;20040;-77
2022/07/03 05:54:12;;;;;;;21.35;20.15;;;22.60;99.90;;;;;;5071670;28;20138;-75
2022/07/03 05:56:39;;;;;;;21.67;20.38;;;22.50;99.90;;;;;;5062708;28;20196;-76
2022/07/03 05:59:06;;;;;;;22.42;21.25;;;22.40;99.90;;;;;;5071236;28;20097;-75
2022/07/03 06:01:35;;;;;;;22.80;21.45;;;22.80;99.90;;;;;;5063291;28;20513;-76
2022/07/03 06:04:02;;;;;;;23.45;22.05;;;22.90;99.90;;;;;;5073030;28;20085;-75
2022/07/03 06:06:29;;;;;;;24.05;22.75;;;23.20;99.90;;;;;;5061302;28;20040;-76
2022/07/03 06:08:56;;;;;;;22.85;21.42;;;23.40;99.90;;;;;;5057080;28;20050;-75
2022/07/03 06:11:23;;;;;;;23.92;22.60;;;23.40;99.90;;;;;;5077134;28;20110;-75
2022/07/03 06:13:49;;;;;;;24.58;22.80;;;23.00;99.90;;;;;;5062561;28;20052;-74
2022/07/03 06:16:16;;;;;;;23.60;22.23;;;22.80;99.90;;;;;;5071629;28;20052;-74
2022/07/03 06:18:43;;;;;;;23.38;22.02;;;22.80;99.90;;;;;;5068060;28;20052;-75
2022/07/03 06:21:10;;;;;;;23.08;21.77;;;23.00;99.90;;;;;;5060634;28;20155;-75
2022/07/03 06:23:37;;;;;;;21.80;20.23;;;23.00;99.90;;;;;;5067457;28;20048;-77
2022/07/03 06:26:14;;;;;;;22.20;20.90;;;23.10;99.90;;;;;;5078160;28;20115;-76
2022/07/03 06:28:42;;;;;;;22.95;21.50;;;23.20;99.90;;;;;;5065417;28;20044;-72
2022/07/03 06:31:10;;;;;;;22.23;20.88;;;23.20;99.90;;;;;;5078772;28;20097;-75
2022/07/03 06:33:37;;;;;;;22.13;20.83;;;23.30;99.90;;;;;;5070222;28;20169;-76
2022/07/03 06:36:04;;;;;;;22.42;21.10;;;23.40;99.90;;;;;;5052407;28;20105;-75
2022/07/03 06:38:30;;;;;;;22.33;21.13;;;23.50;99.90;;;;;;5069471;28;20105;-76
2022/07/03 06:40:57;;;;;;;22.20;21.02;;;23.70;99.90;;;;;;5060789;28;20043;-76
2022/07/03 06:43:24;;;;;;;22.52;21.23;;;23.70;99.90;;;;;;5071379;28;20055;-75
2022/07/03 06:45:51;;;;;;;23.13;21.60;;;23.80;99.90;;;;;;5077851;28;20397;-76
2022/07/03 06:48:18;;;;;;;23.42;22.02;;;24.10;99.90;;;;;;5060091;28;20089;-75
2022/07/03 06:50:48;;;;;;;22.95;21.75;;;24.20;99.90;;;;;;5075041;28;20036;-76
2022/07/03 06:53:14;;;;;;;23.60;21.63;;;24.40;99.90;;;;;;5075330;28;20052;-76
2022/07/03 06:55:41;;;;;;;22.85;21.33;;;24.50;99.90;;;;;;5058363;28;20044;-75
2022/07/03 06:58:08;;;;;;;22.70;21.50;;;24.50;99.90;;;;;;5069257;28;20744;-74
2022/07/03 07:00:36;;;;;;;22.20;20.88;;;24.40;99.90;;;;;;5068720;28;20033;-75
2022/07/03 07:03:02;;;;;;;21.75;20.55;;;24.40;99.90;;;;;;5070806;28;20043;-79
2022/07/03 07:05:29;;;;;;;22.80;21.40;;;24.40;99.90;;;;;;5052465;28;20094;-76
2022/07/03 07:07:57;;;;;;;21.77;20.55;;;24.40;99.90;;;;;;5069805;28;20119;-76
2022/07/03 07:10:23;;;;;;;22.77;21.25;;;24.40;99.90;;;;;;5064278;28;20052;-76
2022/07/03 07:12:50;;;;;;;23.48;22.17;;;24.60;99.90;;;;;;5068918;28;20075;-75
2022/07/03 07:15:17;;;;;;;23.63;22.42;;;24.70;99.90;;;;;;5060986;28;20044;-76
2022/07/03 07:17:44;;;;;;;22.52;21.42;;;24.40;99.90;;;;;;5066172;28;20040;-76
2022/07/03 07:20:11;;;;;;;23.95;22.85;;;24.30;99.90;;;;;;5067039;28;20599;-76
2022/07/03 07:22:38;;;;;;;23.50;22.08;;;24.40;99.90;;;;;;5068090;28;20040;-75
2022/07/03 07:25:05;;;;;;;25.08;23.88;;;24.20;99.90;;;;;;5072651;28;20052;-76
2022/07/03 07:27:32;;;;;;;25.00;23.70;;;24.00;99.90;;;;;;5067603;28;20098;-79
2022/07/03 07:29:58;;;;;;;24.02;22.48;;;23.90;99.90;;;;;;5048383;28;20762;-76
2022/07/03 07:32:26;;;;;;;23.73;22.30;;;23.90;99.90;;;;;;5048222;28;20589;-76
2022/07/03 07:34:52;;;;;;;23.20;21.80;;;23.90;99.90;;;;;;5069825;28;20052;-76
2022/07/03 07:37:19;;;;;;;23.98;22.77;;;24.00;99.90;;;;;;5049587;28;20060;-76
2022/07/03 07:39:46;;;;;;;23.25;21.88;;;24.00;99.90;;;;;;5061202;28;20451;-75
2022/07/03 07:42:13;;;;;;;23.55;22.35;;;24.10;99.90;;;;;;5068916;28;20044;-75
2022/07/03 07:44:40;;;;;;;22.95;21.63;;;24.40;99.90;;;;;;5071306;28;20040;-76
2022/07/03 07:47:07;;;;;;;22.33;21.17;;;24.70;99.90;;;;;;5065313;28;20039;-76
2022/07/03 07:49:33;;;;;;;23.60;22.40;;;25.00;99.90;;;;;;5067920;28;20101;-76
2022/07/03 07:52:00;;;;;;;24.13;22.60;;;25.40;99.90;;;;;;5076691;28;20566;-75
2022/07/03 07:54:28;;;;;;;23.67;22.48;;;25.70;99.90;;;;;;5049401;28;20561;-77
2022/07/03 07:56:55;;;;;;;23.45;22.30;;;25.90;99.90;;;;;;5073407;28;20113;-76
2022/07/03 07:59:22;;;;;;;24.60;23.40;;;26.10;99.90;;;;;;5057055;28;20652;-79
2022/07/03 08:07:19;;;;;;;25.02;23.70;;;26.50;99.90;;;;;;5068065;28;19928;-77
2022/07/03 08:09:46;;;;;;;22.38;21.08;;;26.70;99.90;;;;;;5056562;28;20474;-75
2022/07/03 08:12:13;;;;;;;21.08;19.77;;;26.80;99.90;;;;;;5070030;28;20602;-76
2022/07/03 08:14:40;;;;;;;22.73;21.52;;;27.00;99.90;;;;;;5049772;28;20128;-76
2022/07/03 08:17:07;;;;;;;22.45;21.15;;;27.20;99.90;;;;;;5055349;28;20075;-76
2022/07/03 08:19:33;;;;;;;22.95;21.75;;;27.00;99.90;;;;;;5069555;28;20345;-76
2022/07/03 08:22:01;;;;;;;23.30;22.02;;;26.90;99.90;;;;;;5058072;28;20044;-76
2022/07/03 08:24:28;;;;;;;24.27;22.75;;;26.70;99.90;;;;;;5064109;28;20046;-76
2022/07/03 08:26:55;;;;;;;25.40;24.10;;;26.30;99.90;;;;;;5063408;28;20251;-76
2022/07/03 08:29:22;;;;;;;24.60;23.13;;;26.00;99.90;;;;;;5070691;28;20075;-75
2022/07/03 08:31:49;;;;;;;24.25;22.80;;;26.20;99.90;;;;;;5062592;28;20548;-77
2022/07/03 08:34:16;;;;;;;24.52;23.02;;;26.50;99.90;;;;;;5069150;28;20083;-75
2022/07/03 08:36:42;;;;;;;23.92;22.63;;;26.40;99.90;;;;;;5074237;28;20052;-76
2022/07/03 08:39:09;;;;;;;24.13;22.83;;;26.50;99.90;;;;;;5066371;28;20052;-76
2022/07/03 08:41:39;;;;;;;24.02;22.83;;;26.90;99.90;;;;;;5056157;28;20040;-75
2022/07/03 08:44:07;;;;;;;24.15;22.52;;;26.90;99.90;;;;;;5067579;28;20056;-76
2022/07/03 08:46:35;;;;;;;23.92;22.70;;;27.00;99.90;;;;;;5061689;28;20067;-75
2022/07/03 08:49:02;;;;;;;25.42;24.08;;;27.00;99.90;;;;;;5066968;28;20047;-74
2022/07/03 08:51:54;;;;;;;26.15;24.75;;;27.10;99.90;;;;;;5045027;28;20508;-77
2022/07/03 08:54:21;;;;;;;25.80;24.50;;;27.40;99.90;;;;;;5066961;28;20093;-77
2022/07/03 08:56:48;;;;;;;25.88;24.50;;;27.20;99.90;;;;;;5050551;28;20448;-75
2022/07/03 08:59:16;;;;;;;25.63;24.35;;;27.00;99.90;;;;;;5055096;28;20689;-75
2022/07/03 09:01:46;;;;;;;25.73;24.52;;;26.80;99.80;;;;;;5064507;28;20044;-75
2022/07/03 09:04:13;;;;;;;24.75;23.25;;;27.00;99.90;;;;;;5058392;28;20047;-76
2022/07/03 09:06:42;;;;;;;25.60;24.20;;;27.20;99.90;;;;;;5069322;28;20611;-73
2022/07/03 09:09:09;;;;;;;26.30;24.63;;;27.20;99.90;;;;;;5064253;28;20543;-76
2022/07/03 09:11:37;;;;;;;25.85;24.55;;;27.00;99.90;;;;;;5057929;28;20059;-76
2022/07/03 09:14:06;;;;;;;25.77;24.58;;;27.20;99.90;;;;;;5073439;28;20108;-76
2022/07/03 09:16:36;;;;;;;26.05;24.67;;;27.20;99.90;;;;;;5064920;28;20048;-76
2022/07/03 09:19:04;;;;;;;26.42;24.92;;;27.10;99.90;;;;;;5073375;28;20104;-76
2022/07/03 09:21:42;;;;;;;26.58;25.17;;;27.10;99.90;;;;;;5069742;28;20040;-76
2022/07/03 09:24:10;;;;;;;26.30;24.80;;;27.40;99.90;;;;;;5056325;28;20066;-76
2022/07/03 09:26:51;;;;;;;25.55;24.25;;;27.80;99.90;;;;;;5059868;28;20036;-76
2022/07/03 09:29:19;;;;;;;27.30;25.80;;;28.10;99.60;;;;;;5071251;28;20044;-76
2022/07/03 09:31:55;;;;;;;24.88;23.52;;;28.10;99.30;;;;;;5049487;28;20160;-75
2022/07/03 09:34:23;;;;;;;25.60;24.40;;;28.70;98.40;;;;;;5054229;28;20044;-76
2022/07/03 09:36:51;;;;;;;26.08;24.63;;;29.00;98.00;;;;;;5063993;28;20121;-74
2022/07/03 09:39:31;;;;;;;26.10;24.77;;;28.90;98.80;;;;;;5045815;28;20564;-76
2022/07/03 09:42:06;;;;;;;26.17;24.60;;;28.70;99.20;;;;;;5063948;28;20040;-76
2022/07/03 09:44:36;;;;;;;;;;;28.60;98.20;;;;;;5071961;28;20058;-76
2022/07/03 09:47:16;;;;;;;25.60;24.35;;;28.80;97.90;;;;;;5069223;28;19931;-75
2022/07/03 09:49:54;;;;;;;26.70;25.40;;;28.90;98.80;;;;;;5069371;28;20048;-75
2022/07/03 09:52:30;;;;;;;26.77;25.52;;;28.70;97.30;;;;;;5070733;28;20085;-76
2022/07/03 09:54:59;;;;;;;26.27;24.95;;;28.10;98.40;;;;;;5068931;28;20646;-74
2022/07/03 09:57:30;;;;;;;25.70;24.50;;;28.10;97.80;;;;;;5060426;28;20577;-76
2022/07/03 10:00:11;;;;;;;26.73;25.33;;;28.20;98.70;;;;;;5050841;28;20056;-75
2022/07/03 10:03:13;;;;;;;26.48;25.17;;;28.40;98.20;;;;;;5053569;28;20058;-76
2022/07/03 10:05:42;;;;;;;26.63;25.20;;;28.50;98.20;;;;;;5073080;28;20044;-74
2022/07/03 10:08:18;;;;;;;25.95;24.75;;;28.90;98.80;;;;;;5052075;28;20056;-75
2022/07/03 10:10:46;;;;;;;27.33;25.90;;;29.10;97.50;;;;;;5068533;28;20045;-75
2022/07/03 10:13:15;;;;;;;27.70;26.15;;;29.00;97.10;;;;;;5069554;28;20083;-74
2022/07/03 10:15:43;;;;;;;27.02;25.73;;;28.90;96.80;;;;;;5069617;28;20044;-76
2022/07/03 10:18:12;;;;;;;27.58;26.00;;;29.00;96.50;;;;;;5069105;28;20428;-76
2022/07/03 10:20:49;;;;;;;27.95;26.55;;;29.00;95.80;;;;;;5066520;28;20070;-76
2022/07/03 10:23:20;;;;;;;29.33;27.67;;;28.70;96.80;;;;;;5070937;28;20154;-75
2022/07/03 10:25:48;;;;;;;27.25;25.95;;;28.90;97.20;;;;;;5068148;28;20048;-75
2022/07/03 10:28:21;;;;;;;30.10;28.50;;;28.80;95.80;;;;;;5052448;28;20040;-75
2022/07/03 10:30:48;;;;;;;29.30;27.48;;;27.90;96.20;;;;;;5069384;28;20040;-78
2022/07/03 10:33:15;;;;;;;26.00;24.33;;;28.00;97.10;;;;;;5065460;28;20048;-78
2022/07/03 10:35:50;;;;;;;29.92;28.42;;;28.40;96.50;;;;;;5062573;28;20105;-76
2022/07/03 10:38:39;;;;;;;28.92;27.33;;;28.30;96.20;;;;;;5059876;28;20056;-78
2022/07/03 10:46:51;;;;;;;28.27;26.88;;;28.50;97.60;;;;;;5072819;28;20225;-73
2022/07/03 10:49:25;;;;;;;28.55;27.15;;;29.10;96.50;;;;;;5066712;28;20036;-76
2022/07/03 10:51:53;;;;;;;26.55;25.08;;;29.30;96.20;;;;;;5051410;28;20127;-75
2022/07/03 10:54:29;;;;;;;28.10;26.38;;;29.30;95.60;;;;;;5074674;28;20052;-76
2022/07/03 10:57:01;;;;;;;28.13;26.70;;;28.90;95.90;;;;;;5065012;28;20044;-75
2022/07/03 10:59:31;;;;;;;30.17;28.75;;;28.80;96.80;;;;;;5068263;28;20052;-73
2022/07/03 11:02:32;;;;;;;30.02;28.30;;;29.20;97.10;;;;;;5066461;28;20064;-75
2022/07/03 11:05:00;;;;;;;30.25;28.65;;;29.00;95.90;;;;;;5070901;28;20072;-74
2022/07/03 11:07:38;;;;;;;30.33;28.85;;;29.10;96.20;;;;;;5073168;28;20122;-77
2022/07/03 11:10:13;;;;;;;31.13;29.52;;;29.10;95.90;;;;;;5069627;28;20044;-73
2022/07/03 11:13:03;;;;;;;29.52;27.77;;;29.00;95.60;;;;;;5061558;28;20066;-76
2022/07/03 11:15:33;;;;;;;30.73;29.15;;;28.90;95.30;;;;;;5067065;28;20044;-76
2022/07/03 11:18:12;;;;;;;31.05;29.65;;;28.80;95.70;;;;;;5073233;28;20046;-74
2022/07/03 11:20:41;;;;;;;32.00;30.30;;;28.70;95.50;;;;;;5060185;28;20044;-76
2022/07/03 11:23:26;;;;;;;31.95;30.25;;;28.10;95.60;;;;;;5065506;28;20043;-73
2022/07/03 11:25:58;;;;;;;29.42;27.73;;;28.50;97.50;;;;;;5076790;28;20044;-76
2022/07/03 11:28:34;;;;;;;30.40;28.90;;;28.80;95.90;;;;;;5072500;28;20050;-77
2022/07/03 11:31:13;;;;;;;28.00;26.70;;;28.90;96.20;;;;;;5069134;28;20135;-74
2022/07/03 11:33:57;;;;;;;26.77;25.35;;;29.40;95.60;;;;;;5059393;28;20049;-76
2022/07/03 11:36:30;;;;;;;31.17;29.70;;;29.60;96.20;;;;;;5075301;28;20148;-76
2022/07/03 11:38:57;;;;;;;31.17;29.63;;;29.60;94.80;;;;;;5055617;28;20078;-76
2022/07/03 11:41:26;;;;;;;31.77;30.15;;;29.30;94.10;;;;;;5072810;28;20185;-74
2022/07/03 11:43:55;;;;;;;31.45;29.75;;;29.20;94.80;;;;;;5069160;28;20048;-74
2022/07/03 11:46:27;;;;;;;29.00;27.40;;;28.70;94.10;;;;;;5063618;28;20124;-76
2022/07/03 11:49:13;;;;;;;29.63;28.10;;;28.10;95.60;;;;;;5060751;28;20108;-75
2022/07/03 11:51:42;;;;;;;31.42;29.92;;;28.30;96.60;;;;;;5072006;28;20537;-78
2022/07/03 11:54:09;;;;;;;28.38;26.98;;;28.50;96.30;;;;;;5056634;28;20053;-75
2022/07/03 11:56:38;;;;;;;27.98;26.20;;;28.60;95.40;;;;;;5054728;28;20085;-75
2022/07/03 11:59:06;;;;;;;31.17;29.58;;;28.40;94.80;;;;;;5073893;28;20555;-75
2022/07/03 12:01:38;;;;;;;28.55;27.05;;;28.20;96.50;;;;;;5056206;28;20048;-74
2022/07/03 12:04:12;;;;;;;30.92;29.42;;;28.30;95.80;;;;;;5058216;28;20122;-76
2022/07/03 12:06:53;;;;;;;29.15;27.75;;;28.30;94.90;;;;;;5052045;28;20048;-74
2022/07/03 12:09:24;;;;;;;31.15;29.35;;;28.30;96.20;;;;;;5074088;28;20052;-75
2022/07/03 12:11:55;;;;;;;26.27;24.80;;;28.20;95.30;;;;;;5060174;28;20093;-76
2022/07/03 12:14:47;;;;;;;27.45;26.00;;;28.50;94.80;;;;;;5052519;28;20090;-74
2022/07/03 12:17:19;;;;;;;30.67;29.08;;;28.30;95.80;;;;;;5066398;28;20151;-75
2022/07/03 12:19:58;;;;;;;30.40;28.67;;;28.30;96.20;;;;;;5055728;28;20040;-75
2022/07/03 12:22:33;;;;;;;30.40;28.75;;;28.40;95.10;;;;;;5060139;28;20044;-75
2022/07/03 12:25:07;;;;;;;29.50;27.88;;;28.70;95.80;;;;;;5059667;28;20135;-75
2022/07/03 12:27:39;;;;;;;29.50;28.00;;;28.40;95.30;;;;;;5056581;28;20044;-77
2022/07/03 12:30:18;;;;;;;27.40;25.88;;;29.00;95.70;;;;;;5068710;28;20051;-75
2022/07/03 12:32:53;;;;;;;26.42;25.02;;;28.50;95.10;;;;;;5076206;28;20552;-77
2022/07/03 12:35:21;;;;;;;26.48;24.77;;;28.70;96.00;;;;;;5063809;28;20669;-77
2022/07/03 12:37:48;;;;;;;32.10;30.42;;;28.40;94.90;;;;;;5073587;28;20055;-74
2022/07/03 12:40:15;;;;;;;26.10;24.75;;;28.20;95.30;;;;;;5057987;28;20045;-76
2022/07/03 12:42:46;;;;;;;30.75;29.20;;;28.30;94.00;;;;;;5072064;28;20620;-75
2022/07/03 12:45:21;;;;;;;25.75;24.35;;;28.30;95.00;;;;;;5058251;28;20051;-75
2022/07/03 12:48:17;;;;;;;25.75;24.45;;;28.40;94.90;;;;;;5054249;28;20529;-75
2022/07/03 12:50:51;;;;;;;26.75;25.08;;;28.20;95.10;;;;;;5057757;28;20311;-76
2022/07/03 12:53:29;;;;;;;25.05;23.75;;;28.00;95.50;;;;;;5060222;28;20048;-76
2022/07/03 12:56:03;;;;;;;26.48;25.02;;;27.70;95.70;;;;;;5064217;28;20040;-76
2022/07/03 13:01:34;;;;;;;25.27;23.88;;;27.40;95.80;;;;;;5068100;28;20084;-76
2022/07/03 13:04:01;;;;;;;25.20;23.60;;;27.20;95.80;;;;;;5070062;28;20404;-76